createdAt,value
2022-09-15T00:00:26.091Z,3.03
2022-09-15T00:01:29.388Z,2.40
2022-09-15T00:02:32.463Z,2.83
2022-09-15T00:03:39.321Z,3.10
2022-09-15T00:04:42.256Z,3.08
2022-09-15T00:05:45.806Z,2.70
2022-09-15T00:06:48.664Z,2.75
2022-09-15T00:07:51.862Z,2.75
2022-09-15T00:08:55.235Z,3.50
2022-09-15T00:09:58.182Z,2.37
2022-09-15T00:11:19.744Z,2.55
2022-09-15T00:13:26.663Z,2.55
2022-09-15T00:14:29.845Z,2.90
2022-09-15T00:15:32.796Z,3.10
2022-09-15T00:16:36.361Z,2.80
2022-09-15T00:17:43.390Z,2.72
2022-09-15T00:18:47.273Z,2.85
2022-09-15T00:19:50.369Z,3.12
2022-09-15T00:20:53.392Z,2.70
2022-09-15T00:21:56.529Z,2.80
2022-09-15T00:22:59.676Z,3.10
2022-09-15T00:24:03.047Z,2.87
2022-09-15T00:25:06.547Z,2.80
2022-09-15T00:26:15.315Z,2.95
2022-09-15T00:27:18.074Z,3.50
2022-09-15T00:28:23.145Z,3.25
2022-09-15T00:29:26.068Z,2.72
2022-09-15T00:30:29.009Z,3.25
2022-09-15T00:31:33.616Z,3.75
2022-09-15T00:32:38.268Z,2.92
2022-09-15T00:33:48.151Z,2.90
2022-09-15T00:34:51.652Z,2.80
2022-09-15T00:35:54.885Z,3.30
2022-09-15T00:36:57.838Z,3.40
2022-09-15T00:38:00.880Z,3.40
2022-09-15T00:39:06.276Z,3.28
2022-09-15T00:40:09.664Z,3.05
2022-09-15T00:41:19.176Z,2.90
2022-09-15T00:42:24.306Z,3.37
2022-09-15T00:43:50.649Z,3.40
2022-09-15T00:45:02.317Z,3.53
2022-09-15T00:46:10.322Z,3.22
2022-09-15T00:47:19.675Z,3.50
2022-09-15T00:48:27.190Z,3.70
2022-09-15T00:49:34.608Z,3.67
2022-09-15T00:50:42.181Z,3.17
2022-09-15T00:51:55.057Z,3.28
2022-09-15T00:53:02.041Z,3.92
2022-09-15T00:54:17.811Z,3.42
2022-09-15T00:55:53.177Z,3.85
2022-09-15T00:57:01.555Z,3.37
2022-09-15T00:58:08.240Z,3.67
2022-09-15T01:00:40.268Z,3.60
2022-09-15T01:01:45.027Z,3.67
2022-09-15T01:02:49.511Z,3.58
2022-09-15T01:03:54.165Z,4.15
2022-09-15T01:05:00.293Z,4.00
2022-09-15T01:06:15.829Z,4.07
2022-09-15T01:07:26.582Z,3.53
2022-09-15T01:08:36.727Z,4.12
2022-09-15T01:10:00.429Z,4.00
2022-09-15T01:11:03.369Z,3.75
2022-09-15T01:12:06.766Z,4.00
2022-09-15T01:13:13.006Z,3.90
2022-09-15T01:14:16.205Z,3.92
2022-09-15T01:15:21.242Z,4.15
2022-09-15T01:18:27.330Z,3.72
2022-09-15T01:19:51.720Z,3.28
2022-09-15T01:21:00.996Z,3.90
2022-09-15T01:22:41.041Z,3.60
2022-09-15T01:24:02.433Z,3.70
2022-09-15T01:25:39.278Z,3.70
2022-09-15T01:27:37.778Z,3.55
2022-09-15T01:28:44.774Z,3.92
2022-09-15T01:29:59.951Z,3.65
2022-09-15T01:31:30.086Z,3.35
2022-09-15T01:33:20.202Z,3.67
2022-09-15T01:34:26.825Z,3.60
2022-09-15T01:35:44.780Z,2.90
2022-09-15T01:36:59.717Z,3.10
2022-09-15T01:38:12.099Z,3.67
2022-09-15T01:39:30.535Z,3.20
2022-09-15T01:40:45.540Z,3.80
2022-09-15T01:41:55.326Z,3.50
2022-09-15T01:43:02.448Z,3.35
2022-09-15T01:44:20.305Z,3.47
2022-09-15T01:45:30.814Z,3.58
2022-09-15T01:46:40.625Z,3.15
2022-09-15T01:47:48.461Z,3.62
2022-09-15T01:48:54.134Z,3.30
2022-09-15T01:50:02.992Z,3.62
2022-09-15T01:51:07.342Z,3.53
2022-09-15T01:52:10.614Z,3.60
2022-09-15T01:53:18.409Z,3.47
2022-09-15T01:54:27.803Z,3.30
2022-09-15T01:55:38.995Z,3.40
2022-09-15T01:56:42.431Z,3.17
2022-09-15T01:57:45.710Z,3.10
2022-09-15T01:58:51.330Z,3.20
2022-09-15T01:59:56.533Z,3.28
2022-09-15T02:01:06.436Z,3.40
2022-09-15T02:02:16.059Z,3.50
2022-09-15T02:04:02.847Z,3.65
2022-09-15T02:05:16.859Z,3.30
2022-09-15T02:06:36.434Z,3.42
2022-09-15T02:07:49.241Z,3.35
2022-09-15T02:09:07.706Z,3.22
2022-09-15T02:10:20.432Z,3.30
2022-09-15T02:11:28.332Z,3.00
2022-09-15T02:12:50.997Z,3.47
2022-09-15T02:14:36.446Z,3.05
2022-09-15T02:15:52.081Z,3.28
2022-09-15T02:16:55.312Z,3.30
2022-09-15T02:17:59.390Z,3.35
2022-09-15T02:19:17.933Z,3.30
2022-09-15T02:20:50.157Z,3.35
2022-09-15T02:22:28.044Z,3.20
2022-09-15T02:23:37.902Z,3.20
2022-09-15T02:24:50.286Z,3.03
2022-09-15T02:26:06.749Z,3.22
2022-09-15T02:27:16.313Z,2.80
2022-09-15T02:28:26.370Z,2.95
2022-09-15T02:29:34.015Z,3.08
2022-09-15T02:30:42.164Z,3.12
2022-09-15T02:31:46.805Z,2.70
2022-09-15T02:32:56.413Z,2.90
2022-09-15T02:34:06.046Z,3.10
2022-09-15T02:35:10.166Z,2.40
2022-09-15T02:36:15.924Z,3.12
2022-09-15T02:37:23.102Z,2.60
2022-09-15T02:38:29.824Z,2.80
2022-09-15T02:39:37.348Z,2.50
2022-09-15T02:40:43.478Z,2.95
2022-09-15T02:41:49.017Z,2.58
2022-09-15T02:42:56.038Z,2.58
2022-09-15T02:43:58.916Z,2.15
2022-09-15T02:45:02.492Z,2.30
2022-09-15T02:46:10.380Z,2.30
2022-09-15T02:47:13.704Z,2.30
2022-09-15T02:48:16.824Z,2.42
2022-09-15T02:49:20.354Z,2.50
2022-09-15T02:50:28.014Z,2.30
2022-09-15T02:51:31.446Z,2.30
2022-09-15T02:52:38.384Z,2.17
2022-09-15T02:53:43.213Z,2.20
2022-09-15T02:54:46.471Z,2.00
2022-09-15T02:55:49.738Z,2.20
2022-09-15T02:56:52.672Z,2.30
2022-09-15T02:57:57.496Z,1.92
2022-09-15T02:59:01.784Z,2.33
2022-09-15T03:00:17.045Z,1.80
2022-09-15T03:01:20.089Z,1.80
2022-09-15T03:02:23.725Z,2.37
2022-09-15T03:03:26.840Z,2.35
2022-09-15T03:04:31.350Z,1.83
2022-09-15T03:05:37.629Z,1.90
2022-09-15T03:06:42.233Z,1.90
2022-09-15T03:07:45.696Z,2.05
2022-09-15T03:08:52.460Z,1.90
2022-09-15T03:09:56.564Z,1.83
2022-09-15T03:10:59.475Z,2.10
2022-09-15T03:12:04.352Z,2.05
2022-09-15T03:13:09.129Z,1.90
2022-09-15T03:14:12.202Z,1.75
2022-09-15T03:15:19.738Z,2.03
2022-09-15T03:16:23.082Z,1.60
2022-09-15T03:17:25.951Z,1.90
2022-09-15T03:18:28.964Z,1.70
2022-09-15T03:19:32.454Z,2.00
2022-09-15T03:20:35.257Z,1.95
2022-09-15T03:21:38.818Z,1.92
2022-09-15T03:22:45.547Z,1.70
2022-09-15T03:23:48.663Z,1.80
2022-09-15T03:24:52.051Z,1.90
2022-09-15T03:25:54.751Z,1.60
2022-09-15T03:26:57.685Z,1.80
2022-09-15T03:28:00.499Z,1.55
2022-09-15T03:29:03.826Z,1.58
2022-09-15T03:30:09.384Z,1.60
2022-09-15T03:31:13.831Z,1.80
2022-09-15T03:33:26.083Z,1.50
2022-09-15T03:34:29.316Z,1.60
2022-09-15T03:35:32.130Z,1.58
2022-09-15T03:36:35.175Z,1.70
2022-09-15T03:37:42.238Z,1.40
2022-09-15T03:38:45.423Z,1.50
2022-09-15T03:39:49.216Z,1.45
2022-09-15T03:41:03.631Z,1.70
2022-09-15T03:42:06.706Z,1.40
2022-09-15T03:43:18.012Z,1.98
2022-09-15T03:44:21.950Z,1.30
2022-09-15T03:45:25.353Z,1.40
2022-09-15T03:46:28.833Z,1.62
2022-09-15T03:47:32.855Z,1.40
2022-09-15T03:48:36.445Z,1.48
2022-09-15T03:49:39.393Z,1.40
2022-09-15T03:50:42.515Z,1.30
2022-09-15T03:51:45.630Z,1.50
2022-09-15T03:52:48.759Z,1.50
2022-09-15T03:53:52.473Z,1.30
2022-09-15T03:54:55.833Z,1.40
2022-09-15T03:56:11.765Z,1.40
2022-09-15T03:57:14.998Z,1.10
2022-09-15T03:58:19.110Z,1.30
2022-09-15T03:59:23.459Z,1.25
2022-09-15T04:00:26.771Z,1.15
2022-09-15T04:01:30.735Z,1.30
2022-09-15T04:02:33.993Z,1.30
2022-09-15T04:03:43.257Z,1.33
2022-09-15T04:05:53.215Z,1.30
2022-09-15T04:06:56.304Z,1.10
2022-09-15T04:07:59.260Z,1.60
2022-09-15T04:09:02.587Z,1.40
2022-09-15T04:10:10.236Z,1.40
2022-09-15T04:11:14.231Z,1.48
2022-09-15T04:12:17.592Z,1.40
2022-09-15T04:13:28.613Z,1.40
2022-09-15T04:14:32.287Z,1.27
2022-09-15T04:15:35.103Z,1.37
2022-09-15T04:16:38.189Z,1.35
2022-09-15T04:17:41.328Z,1.40
2022-09-15T04:18:45.109Z,1.50
2022-09-15T04:19:47.999Z,1.70
2022-09-15T04:20:51.283Z,1.40
2022-09-15T04:21:54.428Z,1.48
2022-09-15T04:22:58.700Z,1.40
2022-09-15T04:24:05.337Z,1.40
2022-09-15T04:25:09.497Z,1.58
2022-09-15T04:26:24.736Z,1.17
2022-09-15T04:27:30.281Z,1.50
2022-09-15T04:28:37.532Z,1.30
2022-09-15T04:29:40.610Z,1.40
2022-09-15T04:30:44.172Z,1.25
2022-09-15T04:31:47.334Z,1.40
2022-09-15T04:32:51.865Z,1.35
2022-09-15T04:33:55.896Z,1.48
2022-09-15T04:34:59.012Z,1.23
2022-09-15T04:36:06.831Z,1.33
2022-09-15T04:37:14.255Z,1.40
2022-09-15T04:38:17.402Z,1.60
2022-09-15T04:39:20.430Z,1.40
2022-09-15T04:40:23.599Z,1.40
2022-09-15T04:41:27.616Z,1.50
2022-09-15T04:42:31.653Z,1.70
2022-09-15T04:43:35.579Z,1.42
2022-09-15T04:44:38.805Z,1.75
2022-09-15T04:45:41.716Z,1.60
2022-09-15T04:46:44.825Z,1.70
2022-09-15T04:47:48.742Z,1.50
2022-09-15T04:48:52.058Z,1.98
2022-09-15T04:49:55.021Z,1.92
2022-09-15T04:51:07.162Z,1.52
2022-09-15T04:52:10.181Z,2.05
2022-09-15T04:53:13.793Z,2.08
2022-09-15T04:54:16.780Z,1.80
2022-09-15T04:55:20.087Z,1.87
2022-09-15T04:56:25.958Z,1.90
2022-09-15T04:57:29.193Z,1.92
2022-09-15T04:58:39.986Z,2.25
2022-09-15T04:59:43.014Z,1.95
2022-09-15T05:00:46.036Z,2.03
2022-09-15T05:01:49.426Z,1.65
2022-09-15T05:02:52.372Z,2.05
2022-09-15T05:03:56.060Z,2.30
2022-09-15T05:04:59.384Z,1.80
2022-09-15T05:06:02.312Z,1.90
2022-09-15T05:07:05.327Z,2.33
2022-09-15T05:08:08.783Z,2.00
2022-09-15T05:09:15.061Z,2.08
2022-09-15T05:10:19.365Z,2.47
2022-09-15T05:11:23.133Z,2.33
2022-09-15T05:12:26.136Z,1.90
2022-09-15T05:13:29.759Z,2.08
2022-09-15T05:14:32.793Z,2.20
2022-09-15T05:15:35.968Z,2.30
2022-09-15T05:16:40.450Z,2.10
2022-09-15T05:17:43.294Z,2.30
2022-09-15T05:18:48.010Z,1.98
2022-09-15T05:19:51.112Z,2.40
2022-09-15T05:20:59.410Z,2.22
2022-09-15T05:22:06.289Z,2.60
2022-09-15T05:23:10.733Z,2.20
2022-09-15T05:24:13.785Z,2.80
2022-09-15T05:25:16.841Z,2.10
2022-09-15T05:26:23.613Z,2.50
2022-09-15T05:27:26.326Z,2.40
2022-09-15T05:28:29.492Z,2.30
2022-09-15T05:29:32.350Z,2.72
2022-09-15T05:30:43.603Z,2.90
2022-09-15T05:31:47.036Z,2.53
2022-09-15T05:32:50.239Z,2.28
2022-09-15T05:33:54.499Z,2.47
2022-09-15T05:34:58.222Z,2.67
2022-09-15T05:36:01.339Z,2.55
2022-09-15T05:37:05.507Z,2.47
2022-09-15T05:38:08.341Z,2.90
2022-09-15T05:39:11.573Z,2.78
2022-09-15T05:40:15.460Z,2.78
2022-09-15T05:41:19.264Z,2.72
2022-09-15T05:42:22.157Z,2.53
2022-09-15T05:43:25.416Z,2.50
2022-09-15T05:44:28.459Z,2.70
2022-09-15T05:45:31.431Z,2.80
2022-09-15T05:46:35.012Z,2.40
2022-09-15T05:47:38.360Z,2.87
2022-09-15T05:48:41.682Z,2.90
2022-09-15T05:49:44.661Z,2.95
2022-09-15T05:50:51.703Z,2.80
2022-09-15T05:51:54.500Z,2.97
2022-09-15T05:52:57.812Z,2.85
2022-09-15T05:54:00.851Z,2.92
2022-09-15T05:55:03.803Z,2.97
2022-09-15T05:56:17.557Z,2.85
2022-09-15T05:57:20.800Z,3.47
2022-09-15T05:58:24.997Z,2.72
2022-09-15T05:59:28.787Z,3.08
2022-09-15T06:00:32.024Z,3.05
2022-09-15T06:01:35.682Z,2.83
2022-09-15T06:02:39.054Z,3.08
2022-09-15T06:03:42.574Z,3.10
2022-09-15T06:04:49.428Z,3.20
2022-09-15T06:05:59.817Z,2.92
2022-09-15T06:07:03.164Z,2.62
2022-09-15T06:08:07.132Z,3.35
2022-09-15T06:09:10.046Z,2.90
2022-09-15T06:10:13.154Z,2.40
2022-09-15T06:11:18.807Z,2.80
2022-09-15T06:12:22.182Z,2.90
2022-09-15T06:13:25.242Z,2.70
2022-09-15T06:14:28.472Z,2.65
2022-09-15T06:15:32.188Z,2.53
2022-09-15T06:16:35.928Z,2.70
2022-09-15T06:17:39.203Z,2.90
2022-09-15T06:18:42.835Z,2.42
2022-09-15T06:19:46.023Z,2.90
2022-09-15T06:20:49.012Z,2.80
2022-09-15T06:21:55.476Z,2.80
2022-09-15T06:22:59.297Z,3.10
2022-09-15T06:24:05.358Z,2.70
2022-09-15T06:25:08.898Z,2.70
2022-09-15T06:26:17.198Z,3.30
2022-09-15T06:27:20.814Z,2.83
2022-09-15T06:28:24.703Z,3.00
2022-09-15T06:29:29.291Z,2.60
2022-09-15T06:30:32.866Z,2.83
2022-09-15T06:31:36.298Z,2.87
2022-09-15T06:32:39.453Z,2.42
2022-09-15T06:35:08.444Z,2.83
2022-09-15T06:36:13.365Z,2.78
2022-09-15T06:37:16.637Z,2.75
2022-09-15T06:38:19.887Z,2.62
2022-09-15T06:39:23.262Z,2.70
2022-09-15T06:40:26.348Z,3.10
2022-09-15T06:41:47.089Z,2.95
2022-09-15T06:42:56.029Z,3.10
2022-09-15T06:43:59.855Z,2.58
2022-09-15T06:45:04.702Z,2.78
2022-09-15T06:46:11.005Z,2.85
2022-09-15T06:47:15.656Z,2.65
2022-09-15T06:48:24.825Z,2.67
2022-09-15T06:49:32.711Z,2.78
2022-09-15T06:50:35.520Z,2.72
2022-09-15T06:51:44.302Z,2.45
2022-09-15T06:52:47.206Z,2.55
2022-09-15T06:53:50.558Z,2.62
2022-09-15T06:54:57.335Z,2.92
2022-09-15T06:56:09.195Z,2.55
2022-09-15T06:57:12.505Z,2.67
2022-09-15T06:58:15.280Z,2.72
2022-09-15T06:59:18.495Z,2.83
2022-09-15T07:00:21.845Z,2.70
2022-09-15T07:01:27.309Z,2.55
2022-09-15T07:02:30.284Z,2.65
2022-09-15T07:03:33.513Z,2.70
2022-09-15T07:04:39.723Z,3.12
2022-09-15T07:05:44.492Z,2.67
2022-09-15T07:06:48.194Z,2.80
2022-09-15T07:07:51.261Z,2.83
2022-09-15T07:08:54.193Z,2.62
2022-09-15T07:09:57.115Z,2.53
2022-09-15T07:11:01.076Z,2.90
2022-09-15T07:12:04.642Z,2.78
2022-09-15T07:13:07.841Z,2.58
2022-09-15T07:14:14.485Z,2.85
2022-09-15T07:15:17.566Z,2.67
2022-09-15T07:16:21.847Z,2.37
2022-09-15T07:17:26.675Z,3.05
2022-09-15T07:18:31.245Z,2.97
2022-09-15T07:19:34.298Z,2.55
2022-09-15T07:20:42.557Z,2.78
2022-09-15T07:21:45.360Z,2.65
2022-09-15T07:22:51.424Z,2.58
2022-09-15T07:23:57.889Z,3.17
2022-09-15T07:25:00.651Z,3.10
2022-09-15T07:26:24.035Z,2.72
2022-09-15T07:27:31.897Z,2.75
2022-09-15T07:28:36.515Z,2.97
2022-09-15T07:29:39.738Z,2.72
2022-09-15T07:30:43.723Z,2.55
2022-09-15T07:31:47.091Z,3.10
2022-09-15T07:32:50.130Z,2.95
2022-09-15T07:33:53.495Z,2.58
2022-09-15T07:34:58.467Z,2.62
2022-09-15T07:36:04.024Z,3.65
2022-09-15T07:37:07.675Z,2.60
2022-09-15T07:38:11.002Z,2.80
2022-09-15T07:39:14.016Z,2.60
2022-09-15T07:40:17.296Z,2.60
2022-09-15T07:41:23.148Z,2.30
2022-09-15T07:42:26.083Z,2.55
2022-09-15T07:43:34.281Z,2.53
2022-09-15T07:44:37.242Z,2.10
2022-09-15T07:45:40.828Z,2.37
2022-09-15T07:46:43.658Z,2.50
2022-09-15T07:47:46.791Z,2.62
2022-09-15T07:48:52.293Z,2.50
2022-09-15T07:49:58.486Z,2.30
2022-09-15T07:51:01.557Z,2.05
2022-09-15T07:52:04.464Z,2.40
2022-09-15T07:53:07.855Z,2.53
2022-09-15T07:54:11.174Z,2.03
2022-09-15T07:55:14.258Z,2.17
2022-09-15T07:56:18.763Z,2.67
2022-09-15T07:57:21.992Z,2.50
2022-09-15T07:58:25.661Z,2.15
2022-09-15T07:59:28.747Z,2.00
2022-09-15T08:00:32.077Z,1.98
2022-09-15T08:01:35.367Z,1.85
2022-09-15T08:02:38.155Z,1.65
2022-09-15T08:03:42.989Z,1.95
2022-09-15T08:04:45.759Z,1.70
2022-09-15T08:05:48.735Z,1.75
2022-09-15T08:06:52.963Z,1.50
2022-09-15T08:07:56.399Z,1.48
2022-09-15T08:09:00.979Z,1.92
2022-09-15T08:10:04.316Z,1.58
2022-09-15T08:11:09.476Z,1.67
2022-09-15T08:12:12.494Z,1.55
2022-09-15T08:13:15.320Z,1.42
2022-09-15T08:14:18.407Z,2.08
2022-09-15T08:15:21.531Z,1.50
2022-09-15T08:16:24.987Z,2.03
2022-09-15T08:17:31.448Z,1.55
2022-09-15T08:18:35.097Z,1.73
2022-09-15T08:19:38.044Z,1.45
2022-09-15T08:20:44.953Z,1.80
2022-09-15T08:21:48.009Z,1.52
2022-09-15T08:22:51.450Z,1.35
2022-09-15T08:24:01.573Z,1.48
2022-09-15T08:25:04.666Z,1.30
2022-09-15T08:26:13.860Z,1.40
2022-09-15T08:27:17.699Z,1.42
2022-09-15T08:28:21.683Z,1.40
2022-09-15T08:29:25.242Z,1.25
2022-09-15T08:30:28.277Z,1.60
2022-09-15T08:31:31.199Z,1.62
2022-09-15T08:32:34.345Z,1.30
2022-09-15T08:33:41.828Z,1.10
2022-09-15T08:34:47.713Z,1.35
2022-09-15T08:35:50.659Z,1.27
2022-09-15T08:36:53.513Z,1.73
2022-09-15T08:37:56.452Z,1.62
2022-09-15T08:38:59.998Z,1.40
2022-09-15T08:40:05.436Z,1.25
2022-09-15T08:41:24.179Z,1.33
2022-09-15T08:42:29.319Z,0.90
2022-09-15T08:43:51.654Z,1.00
2022-09-15T08:45:08.385Z,1.00
2022-09-15T08:46:18.466Z,1.08
2022-09-15T08:47:28.660Z,0.82
2022-09-15T08:48:40.435Z,1.10
2022-09-15T08:50:01.146Z,1.20
2022-09-15T08:51:12.110Z,1.00
2022-09-15T08:52:32.173Z,0.70
2022-09-15T08:53:43.135Z,1.15
2022-09-15T08:54:46.133Z,1.10
2022-09-15T08:55:53.021Z,1.20
2022-09-15T08:56:57.776Z,1.40
2022-09-15T08:58:00.636Z,0.88
2022-09-15T08:59:03.715Z,1.08
2022-09-15T09:00:13.843Z,0.90
2022-09-15T09:01:31.885Z,0.95
2022-09-15T09:03:01.838Z,1.10
2022-09-15T09:04:24.503Z,1.23
2022-09-15T09:06:00.742Z,1.20
2022-09-15T09:07:19.023Z,0.82
2022-09-15T09:09:03.022Z,0.85
2022-09-15T09:10:38.716Z,0.80
2022-09-15T09:12:09.306Z,1.10
2022-09-15T09:13:36.388Z,1.00
2022-09-15T09:14:45.055Z,0.77
2022-09-15T09:16:10.708Z,0.80
2022-09-15T09:17:34.988Z,0.90
2022-09-15T09:18:59.798Z,0.70
2022-09-15T09:20:39.620Z,0.98
2022-09-15T09:21:51.741Z,1.23
2022-09-15T09:22:58.306Z,0.98
2022-09-15T09:24:13.423Z,0.90
2022-09-15T09:25:27.211Z,0.90
2022-09-15T09:26:33.910Z,0.82
2022-09-15T09:27:36.829Z,0.82
2022-09-15T09:28:46.627Z,0.77
2022-09-15T09:29:55.074Z,1.15
2022-09-15T09:31:08.544Z,0.90
2022-09-15T09:32:24.803Z,1.20
2022-09-15T09:33:41.791Z,1.20
2022-09-15T09:35:14.687Z,0.95
2022-09-15T09:36:18.078Z,1.00
2022-09-15T09:37:21.255Z,0.95
2022-09-15T09:38:31.547Z,1.00
2022-09-15T09:39:34.762Z,1.02
2022-09-15T09:40:41.314Z,1.10
2022-09-15T09:41:45.234Z,1.20
2022-09-15T09:42:49.130Z,1.20
2022-09-15T09:43:55.370Z,1.15
2022-09-15T09:44:58.632Z,1.20
2022-09-15T09:46:02.728Z,1.27
2022-09-15T09:47:05.595Z,1.42
2022-09-15T09:48:35.229Z,1.10
2022-09-15T09:49:48.308Z,1.20
2022-09-15T09:50:51.671Z,1.17
2022-09-15T09:52:02.472Z,1.00
2022-09-15T09:53:33.860Z,1.33
2022-09-15T09:54:38.523Z,1.30
2022-09-15T09:55:41.907Z,1.20
2022-09-15T09:56:45.716Z,1.35
2022-09-15T09:57:48.533Z,1.20
2022-09-15T09:58:52.454Z,1.10
2022-09-15T09:59:57.318Z,1.20
2022-09-15T10:01:10.730Z,1.12
2022-09-15T10:02:19.542Z,1.17
2022-09-15T10:03:32.091Z,1.35
2022-09-15T10:04:35.828Z,0.88
2022-09-15T10:05:38.997Z,1.17
2022-09-15T10:06:42.754Z,1.12
2022-09-15T10:07:46.600Z,1.10
2022-09-15T10:09:05.443Z,1.10
2022-09-15T10:10:23.255Z,1.40
2022-09-15T10:11:52.087Z,1.00
2022-09-15T10:12:59.914Z,1.17
2022-09-15T10:14:02.977Z,1.00
2022-09-15T10:15:19.769Z,1.10
2022-09-15T10:16:23.175Z,0.93
2022-09-15T10:17:41.615Z,0.93
2022-09-15T10:18:45.161Z,1.17
2022-09-15T10:19:54.440Z,1.00
2022-09-15T10:20:57.856Z,1.20
2022-09-15T10:22:03.065Z,0.80
2022-09-15T10:23:24.776Z,0.90
2022-09-15T10:24:27.827Z,1.20
2022-09-15T10:25:49.654Z,1.10
2022-09-15T10:27:27.919Z,0.95
2022-09-15T10:28:30.897Z,0.75
2022-09-15T10:29:42.786Z,1.00
2022-09-15T10:31:07.091Z,1.05
2022-09-15T10:32:18.353Z,0.88
2022-09-15T10:33:29.670Z,1.08
2022-09-15T10:34:32.732Z,1.00
2022-09-15T10:35:44.404Z,1.10
2022-09-15T10:36:47.915Z,1.10
2022-09-15T10:38:03.776Z,0.80
2022-09-15T10:39:13.079Z,0.80
2022-09-15T10:40:40.602Z,0.90
2022-09-15T10:42:04.697Z,0.80
2022-09-15T10:43:19.719Z,1.08
2022-09-15T10:44:44.726Z,0.95
2022-09-15T10:46:10.996Z,0.98
2022-09-15T10:47:16.970Z,1.12
2022-09-15T10:48:41.240Z,1.10
2022-09-15T10:50:18.784Z,1.20
2022-09-15T10:51:31.730Z,0.93
2022-09-15T10:52:49.643Z,1.17
2022-09-15T10:54:11.084Z,1.12
2022-09-15T10:55:52.940Z,1.20
2022-09-15T10:58:49.222Z,1.40
2022-09-15T11:00:02.340Z,1.23
2022-09-15T11:01:30.318Z,1.00
2022-09-15T11:02:59.815Z,0.90
2022-09-15T11:04:15.580Z,1.37
2022-09-15T11:05:47.036Z,1.08
2022-09-15T11:07:08.379Z,1.02
2022-09-15T11:08:35.964Z,1.17
2022-09-15T11:09:54.030Z,1.23
2022-09-15T11:11:16.666Z,1.25
2022-09-15T11:12:47.436Z,1.20
2022-09-15T11:14:21.836Z,1.27
2022-09-15T11:15:41.771Z,1.27
2022-09-15T11:17:06.206Z,1.17
2022-09-15T11:18:36.830Z,1.30
2022-09-15T11:20:04.841Z,1.17
2022-09-15T11:21:20.022Z,1.10
2022-09-15T11:22:36.455Z,1.05
2022-09-15T11:24:29.595Z,1.33
2022-09-15T11:25:36.784Z,1.20
2022-09-15T11:26:42.961Z,1.33
2022-09-15T11:28:17.479Z,1.50
2022-09-15T11:29:28.264Z,1.40
2022-09-15T11:30:47.656Z,1.87
2022-09-15T11:33:23.053Z,2.12
2022-09-15T11:34:44.106Z,1.87
2022-09-15T11:36:11.151Z,2.08
2022-09-15T11:37:44.829Z,1.85
2022-09-15T11:38:57.863Z,1.62
2022-09-15T11:40:14.938Z,1.80
2022-09-15T11:41:40.937Z,2.10
2022-09-15T11:42:56.480Z,2.05
2022-09-15T11:44:41.971Z,2.22
2022-09-15T11:45:51.095Z,1.98
2022-09-15T11:47:15.808Z,2.03
2022-09-15T11:48:28.113Z,1.70
2022-09-15T11:49:57.241Z,2.22
2022-09-15T11:51:03.090Z,1.95
2022-09-15T11:52:48.212Z,2.20
2022-09-15T11:54:05.521Z,1.98
2022-09-15T11:55:14.064Z,2.10
2022-09-15T11:56:44.369Z,2.03
2022-09-15T11:58:22.364Z,2.22
2022-09-15T11:59:29.467Z,1.87
2022-09-15T12:00:35.418Z,1.80
2022-09-15T12:02:17.268Z,2.00
2022-09-15T12:03:29.193Z,5.12
2022-09-15T12:04:37.472Z,5.82
2022-09-15T12:05:49.342Z,3.45
2022-09-15T12:07:14.653Z,2.53
2022-09-15T12:08:39.610Z,2.70
2022-09-15T12:09:43.045Z,2.00
2022-09-15T12:10:52.663Z,2.50
2022-09-15T12:12:08.658Z,1.90
2022-09-15T12:13:18.534Z,2.17
2022-09-15T12:14:36.092Z,2.10
2022-09-15T12:15:38.945Z,2.10
2022-09-15T12:16:42.484Z,2.10
2022-09-15T12:17:52.597Z,2.15
2022-09-15T12:19:12.083Z,2.47
2022-09-15T12:20:33.601Z,2.70
2022-09-15T12:21:54.373Z,1.60
2022-09-15T12:23:32.985Z,1.87
2022-09-15T12:24:46.218Z,2.33
2022-09-15T12:26:14.920Z,2.10
2022-09-15T12:27:20.588Z,2.30
2022-09-15T12:28:24.132Z,2.08
2022-09-15T12:29:27.023Z,2.00
2022-09-15T12:30:41.762Z,2.05
2022-09-15T12:31:47.236Z,2.95
2022-09-15T12:32:50.265Z,2.65
2022-09-15T12:33:57.587Z,2.92
2022-09-15T12:35:18.599Z,2.37
2022-09-15T12:36:41.499Z,2.10
2022-09-15T12:37:57.540Z,2.85
2022-09-15T12:39:25.731Z,2.80
2022-09-15T12:40:41.880Z,2.28
2022-09-15T12:41:56.077Z,2.97
2022-09-15T12:43:07.483Z,3.03
2022-09-15T12:44:35.091Z,2.90
2022-09-15T12:45:39.522Z,3.05
2022-09-15T12:46:51.571Z,2.87
2022-09-15T12:48:21.510Z,3.30
2022-09-15T12:49:31.377Z,2.83
2022-09-15T12:50:41.263Z,3.00
2022-09-15T12:51:50.036Z,3.28
2022-09-15T12:53:14.694Z,2.87
2022-09-15T12:54:29.881Z,3.17
2022-09-15T12:55:36.815Z,3.53
2022-09-15T12:56:39.987Z,3.22
2022-09-15T12:57:42.885Z,3.58
2022-09-15T12:58:48.495Z,2.25
2022-09-15T13:00:27.653Z,2.50
2022-09-15T13:01:45.737Z,1.70
2022-09-15T13:02:51.188Z,1.85
2022-09-15T13:03:55.444Z,1.75
2022-09-15T13:04:58.489Z,1.80
2022-09-15T13:06:10.519Z,1.92
2022-09-15T13:07:16.283Z,1.65
2022-09-15T13:08:22.994Z,1.42
2022-09-15T13:09:28.447Z,1.73
2022-09-15T13:10:36.041Z,1.30
2022-09-15T13:11:42.701Z,1.23
2022-09-15T13:12:54.692Z,1.45
2022-09-15T13:14:00.200Z,2.87
2022-09-15T13:15:13.444Z,1.62
2022-09-15T13:17:41.254Z,2.08
2022-09-15T13:18:46.330Z,1.73
2022-09-15T13:19:53.354Z,1.80
2022-09-15T13:21:04.958Z,1.60
2022-09-15T13:22:27.552Z,2.30
2022-09-15T13:23:37.054Z,1.55
2022-09-15T13:25:02.331Z,1.83
2022-09-15T13:26:09.856Z,1.98
2022-09-15T13:27:15.399Z,2.30
2022-09-15T13:28:20.402Z,2.17
2022-09-15T13:29:25.937Z,2.20
2022-09-15T13:30:41.164Z,2.20
2022-09-15T13:32:10.241Z,1.52
2022-09-15T13:35:41.376Z,1.30
2022-09-15T13:38:46.731Z,2.53
2022-09-15T13:40:27.587Z,2.05
2022-09-15T13:42:01.558Z,1.73
2022-09-15T13:43:12.928Z,3.55
2022-09-15T13:44:37.153Z,1.98
2022-09-15T13:45:53.151Z,2.10
2022-09-15T13:47:04.644Z,1.80
2022-09-15T13:48:47.959Z,1.80
2022-09-15T13:49:59.877Z,1.87
2022-09-15T13:51:13.360Z,1.90
2022-09-15T13:52:33.273Z,1.35
2022-09-15T13:53:52.688Z,2.00
2022-09-15T13:55:10.348Z,1.73
2022-09-15T13:56:32.986Z,1.80
2022-09-15T13:59:13.378Z,1.95
2022-09-15T14:00:23.218Z,2.12
2022-09-15T14:01:29.720Z,2.53
2022-09-15T14:02:32.679Z,1.65
2022-09-15T14:03:39.519Z,2.25
2022-09-15T14:04:42.261Z,2.20
2022-09-15T14:05:45.740Z,1.48
2022-09-15T14:06:52.078Z,1.60
2022-09-15T14:08:04.479Z,1.73
2022-09-15T14:09:26.983Z,1.60
2022-09-15T14:10:44.397Z,1.80
2022-09-15T14:11:53.798Z,2.17
2022-09-15T14:13:00.536Z,2.33
2022-09-15T14:14:10.604Z,2.45
2022-09-15T14:15:21.804Z,2.97
2022-09-15T14:16:36.356Z,1.87
2022-09-15T14:17:45.659Z,1.75
2022-09-15T14:18:48.510Z,1.90
2022-09-15T14:19:56.920Z,1.77
2022-09-15T14:21:05.094Z,1.55
2022-09-15T14:22:30.866Z,1.40
2022-09-15T14:23:33.896Z,1.30
2022-09-15T14:24:40.609Z,1.50
2022-09-15T14:25:46.213Z,1.50
2022-09-15T14:26:49.168Z,1.67
2022-09-15T14:27:55.547Z,1.52
2022-09-15T14:29:04.618Z,1.67
2022-09-15T14:30:17.454Z,1.40
2022-09-15T14:31:43.960Z,2.00
2022-09-15T14:32:52.536Z,1.10
2022-09-15T14:33:55.668Z,1.50
2022-09-15T14:35:03.522Z,1.60
2022-09-15T14:36:23.180Z,1.35
2022-09-15T14:37:28.981Z,1.52
2022-09-15T14:38:34.061Z,1.60
2022-09-15T14:39:37.933Z,1.70
2022-09-15T14:40:41.601Z,1.52
2022-09-15T14:41:45.073Z,1.50
2022-09-15T14:42:47.875Z,1.62
2022-09-15T14:43:50.817Z,1.70
2022-09-15T14:46:18.718Z,1.75
2022-09-15T14:47:25.852Z,1.75
2022-09-15T14:48:30.330Z,1.65
2022-09-15T14:49:37.799Z,1.70
2022-09-15T14:50:41.512Z,1.52
2022-09-15T14:51:46.482Z,1.70
2022-09-15T14:53:21.202Z,1.58
2022-09-15T14:54:29.577Z,1.90
2022-09-15T14:55:38.329Z,2.10
2022-09-15T14:56:43.429Z,1.55
2022-09-15T14:58:01.792Z,1.48
2022-09-15T14:59:27.887Z,1.70
2022-09-15T15:00:37.782Z,1.85
2022-09-15T15:01:46.610Z,1.70
2022-09-15T15:02:59.589Z,1.30
2022-09-15T15:04:31.542Z,1.62
2022-09-15T15:05:41.587Z,1.45
2022-09-15T15:07:16.097Z,1.52
2022-09-15T15:08:47.374Z,1.60
2022-09-15T15:10:02.870Z,1.77
2022-09-15T15:11:08.749Z,1.70
2022-09-15T15:12:35.055Z,1.70
2022-09-15T15:13:44.460Z,1.60
2022-09-15T15:14:47.539Z,2.00
2022-09-15T15:15:51.068Z,1.80
2022-09-15T15:17:02.496Z,1.70
2022-09-15T15:18:31.870Z,1.60
2022-09-15T15:19:45.271Z,1.70
2022-09-15T15:20:54.647Z,1.75
2022-09-15T15:22:12.436Z,1.77
2022-09-15T15:23:20.815Z,2.05
2022-09-15T15:24:24.115Z,1.87
2022-09-15T15:25:34.865Z,2.05
2022-09-15T15:26:39.945Z,1.42
2022-09-15T15:27:46.828Z,1.73
2022-09-15T15:28:49.935Z,1.98
2022-09-15T15:29:53.137Z,1.60
2022-09-15T15:31:16.796Z,1.75
2022-09-15T15:32:25.314Z,2.00
2022-09-15T15:33:28.637Z,1.92
2022-09-15T15:34:31.650Z,1.87
2022-09-15T15:35:36.101Z,1.87
2022-09-15T15:36:39.188Z,2.20
2022-09-15T15:37:42.347Z,1.90
2022-09-15T15:38:51.936Z,1.65
2022-09-15T15:40:01.018Z,2.10
2022-09-15T15:41:09.402Z,2.30
2022-09-15T15:42:16.072Z,2.20
2022-09-15T15:43:26.774Z,2.20
2022-09-15T15:44:31.572Z,2.53
2022-09-15T15:45:36.384Z,2.78